Captain Evangelos Nm — 9HWW8 — position and weather

sailwx.info

Track history (hours):
 
Tides and Currents Weather Stations Pressure Air Temp Water Temp Dewpoint Dewpoint Depression Visibility Wind Speed Wind Dir Waves Ship Positions

Captain Evangelos Nm

Last reported at 2015-Jul-20 07:28 UTC. Time now 2015-Aug-05 02:21 UTC.
Position N 40°24' E 027°59'.
Warning: this ship's position is 15 days out of date.

Length 223 m; draft 10.1 m.

Type: Cargo ship. MMSI: 256545000.

Date/timePositionNaut miles runAvg speedWind from/ knotsBaromVisibWave heightAir tempDewpointWater temp
2015-Jul-20 07:28N 40°24' E 027°59'2 0.3
2015-Jul-20 01:34N 40°24' E 028°01'225 9.0
2015-Jul-19 00:31N 37°48' E 024°33'2310.9
2015-Jul-18 22:23N 37°27' E 024°19'4812.6
2015-Jul-18 18:32N 36°48' E 023°43'1212.1
2015-Jul-18 17:33N 36°39' E 023°34'1411.4
2015-Jul-18 16:18N 36°28' E 023°23'25912.8
2015-Jul-17 20:03N 36°20' E 018°01'6513.5
2015-Jul-17 15:15N 36°20' E 016°40'1013.6
2015-Jul-17 14:33N 36°20' E 016°28'1513.6
2015-Jul-17 13:29N 36°20' E 016°10'1313.8
2015-Jul-17 12:33N 36°21' E 015°54'1713.6
2015-Jul-17 11:18N 36°20' E 015°34'1013.2
2015-Jul-17 10:33N 36°19' E 015°21'1312.9
2015-Jul-17 09:33N 36°23' E 015°06'1313.2
2015-Jul-17 08:33N 36°24' E 014°49'1313.4
2015-Jul-17 07:33N 36°27' E 014°33'1313.2
2015-Jul-17 06:33N 36°30' E 014°17'1313.2
2015-Jul-17 05:33N 36°33' E 014°01'1313.5
2015-Jul-17 04:33N 36°37' E 013°45'1313.2
2015-Jul-17 03:33N 36°40' E 013°29'1313.5
2015-Jul-17 02:33N 36°44' E 013°13'1313.4
2015-Jul-17 01:33N 36°47' E 012°57'1313.4
2015-Jul-17 00:33N 36°51' E 012°41'1413.7
2015-Jul-16 23:33N 36°55' E 012°24'1413.9
2015-Jul-16 22:33N 36°58' E 012°07'1413.8
2015-Jul-16 21:34N 37°04' E 011°52'1313.4
2015-Jul-16 20:33N 37°10' E 011°37'1313.4
2015-Jul-16 19:33N 37°17' E 011°23'1412.9
2015-Jul-16 18:28N 37°24' E 011°07'1212.9
2015-Jul-16 17:33N 37°26' E 010°53'1313.3
2015-Jul-16 16:33N 37°30' E 010°36'1413.4
2015-Jul-16 15:31N 37°33' E 010°19'2913.3
2015-Jul-16 13:23N 37°30' E 009°44'1113.4
2015-Jul-16 12:33N 37°28' E 009°30'1313.0
2015-Jul-16 11:33N 37°25' E 009°14'1313.2
2015-Jul-16 10:32N 37°21' E 008°58'6713.4
2015-Jul-16 05:32N 37°16' E 007°34'1313.5
2015-Jul-16 04:34N 37°15' E 007°17'2613.1
2015-Jul-16 02:34N 37°13' E 006°45'1313.0
2015-Jul-16 01:33N 37°14' E 006°28'1312.8
2015-Jul-16 00:32N 37°13' E 006°12'1313.1
2015-Jul-15 23:33N 37°13' E 005°56'3113.2
2015-Jul-15 21:13N 37°12' E 005°17'3613.5
2015-Jul-15 18:32N 37°10' E 004°32'1313.6
2015-Jul-15 17:34N 37°09' E 004°15'1313.3
2015-Jul-15 16:33N 37°09' E 003°58'2813.1
2015-Jul-15 14:25N 37°04' E 003°24'1313.3
2015-Jul-15 13:28N 37°01' E 003°08'1213.4
2015-Jul-15 12:34N 36°59' E 002°53'1313.0
2015-Jul-15 11:34N 36°57' E 002°37'1312.9
2015-Jul-15 10:33N 36°54' E 002°21'1312.9
2015-Jul-15 09:33N 36°52' E 002°06'1312.8
2015-Jul-15 08:33N 36°49' E 001°50'1312.9
2015-Jul-15 07:33N 36°46' E 001°34'1312.9
2015-Jul-15 06:33N 36°44' E 001°18'1313.3
2015-Jul-15 05:33N 36°42' E 001°02'1414.0
2015-Jul-15 04:33N 36°39' E 000°45'1413.9
2015-Jul-15 03:33N 36°36' E 000°28'1313.5
2015-Jul-15 02:33N 36°34' E 000°11'1313.3
2015-Jul-15 01:33N 36°31' W 000°05'1313.3
2015-Jul-15 00:34N 36°28' W 000°21'1313.0
2015-Jul-14 23:33N 36°26' W 000°37'1312.7
2015-Jul-14 22:33N 36°24' W 000°53'1312.8
2015-Jul-14 21:33N 36°21' W 001°08'1312.8
2015-Jul-14 20:33N 36°19' W 001°24'1312.9
2015-Jul-14 19:33N 36°17' W 001°39'1312.9
2015-Jul-14 18:33N 36°14' W 001°55'1313.1
2015-Jul-14 17:33N 36°13' W 002°11'1312.7
2015-Jul-14 16:33N 36°12' W 002°27'1212.3
2015-Jul-14 15:33N 36°11' W 002°42'1312.9
2015-Jul-14 14:33N 36°11' W 002°58'1513.0
2015-Jul-14 13:25N 36°10' W 003°16'9413.7
2015-Jul-14 06:33N 36°05' W 005°13'9 9.1
2015-Jul-14 05:33N 36°08' W 005°23'1 0.3
2015-Jul-14 03:27N 36°09' W 005°23'0 0.0
2015-Jul-14 02:24N 36°09' W 005°23'0 0.2
2015-Jul-14 01:30N 36°09' W 005°23'0 0.1
2015-Jul-14 00:24N 36°09' W 005°23'0 0.0
2015-Jul-13 23:33N 36°09' W 005°23'0 0.0
2015-Jul-13 21:06N 36°09' W 005°23'0 0.0
2015-Jul-13 20:33N 36°09' W 005°23'0 0.2
2015-Jul-13 19:32N 36°09' W 005°23'0 0.2
2015-Jul-13 18:26N 36°09' W 005°23'0 0.0
2015-Jul-13 17:33N 36°09' W 005°23'0 0.0
2015-Jul-13 16:33N 36°09' W 005°23'0 0.0
2015-Jul-13 15:33N 36°09' W 005°23'0 0.1
2015-Jul-13 14:32N 36°09' W 005°23'5 5.2
2015-Jul-13 13:33N 36°04' W 005°22'8 8.4
2015-Jul-13 12:33N 35°58' W 005°29'3411.5
2015-Jul-13 09:33N 35°49' W 006°10'1513.6
2015-Jul-13 08:28N 35°42' W 006°26'1213.3
2015-Jul-13 07:33N 35°33' W 006°36'1313.3
2015-Jul-13 06:33N 35°23' W 006°47'1313.3
2015-Jul-13 05:33N 35°13' W 006°58'1313.4
2015-Jul-13 04:33N 35°03' W 007°09'1313.3
2015-Jul-13 03:33N 34°53' W 007°19'1313.3
2015-Jul-13 02:33N 34°43' W 007°30'1313.1
2015-Jul-13 01:33N 34°34' W 007°41'1313.0
2015-Jul-13 00:33N 34°24' W 007°52'1312.7
2015-Jul-12 23:33N 34°14' W 008°02'1312.8
2015-Jul-12 22:33N 34°05' W 008°12'2812.7
2015-Jul-12 20:19N 33°44' W 008°35'912.2
2015-Jul-12 19:33N 33°37' W 008°43'2412.0
2015-Jul-12 17:33N 33°20' W 009°03'1211.7
2015-Jul-12 16:33N 33°11' W 009°12'7211.5
2015-Jul-12 10:14N 32°17' W 010°10'4211.5
2015-Jul-12 06:33N 31°44' W 010°41'3811.2
2015-Jul-12 03:08N 31°14' W 011°10'611.1
2015-Jul-12 02:33N 31°09' W 011°14'3310.8
2015-Jul-11 23:30N 30°44' W 011°38'2511.0
2015-Jul-11 21:16N 30°25' W 011°57'811.1
2015-Jul-11 20:33N 30°19' W 012°03'1111.4
2015-Jul-11 19:33N 30°10' W 012°11'1211.6
2015-Jul-11 18:33N 30°01' W 012°19'1211.7
2015-Jul-11 17:33N 29°52' W 012°28'1211.7
2015-Jul-11 16:33N 29°43' W 012°36'1211.8
2015-Jul-11 15:33N 29°34' W 012°45'1311.8
2015-Jul-11 14:27N 29°23' W 012°54'1411.6
2015-Jul-11 13:13N 29°13' W 013°05'812.0
2015-Jul-11 12:33N 29°06' W 013°09'1212.0
2015-Jul-11 11:32N 28°54' W 013°15'1111.8
2015-Jul-11 10:33N 28°44' W 013°20'1211.6
2015-Jul-11 09:33N 28°34' W 013°26'1212.3
2015-Jul-11 08:33N 28°22' W 013°32'1212.5
2015-Jul-11 07:33N 28°11' W 013°37'1212.3
2015-Jul-11 06:33N 27°60' W 013°43'1211.7
2015-Jul-11 05:33N 27°50' W 013°50'1311.6
2015-Jul-11 04:24N 27°39' W 013°59'1011.7
2015-Jul-11 03:33N 27°30' W 014°04'1212.1
2015-Jul-11 02:33N 27°20' W 014°12'1212.0
2015-Jul-11 01:33N 27°10' W 014°19'1211.6
2015-Jul-11 00:30N 27°00' W 014°27'  
Track history (hours):
 
Tides and Currents Weather Stations Pressure Air Temp Water Temp Dewpoint Dewpoint Depression Visibility Wind Speed Wind Dir Waves Ship Positions

Captain Evangelos Nm

Last reported at 2015-Jul-20 07:28 UTC. Time now 2015-Aug-05 02:21 UTC.
Position N 40°24' E 027°59'.
Warning: this ship's position is 15 days out of date.

Length 223 m; draft 10.1 m.

Type: Cargo ship. MMSI: 256545000.

Date/timePositionNaut miles runAvg speedWind from/ knotsBaromVisibWave heightAir tempDewpointWater temp
2015-Jul-20 07:28N 40°24' E 027°59'2 0.3
2015-Jul-20 01:34N 40°24' E 028°01'225 9.0
2015-Jul-19 00:31N 37°48' E 024°33'2310.9
2015-Jul-18 22:23N 37°27' E 024°19'4812.6
2015-Jul-18 18:32N 36°48' E 023°43'1212.1
2015-Jul-18 17:33N 36°39' E 023°34'1411.4
2015-Jul-18 16:18N 36°28' E 023°23'25912.8
2015-Jul-17 20:03N 36°20' E 018°01'6513.5
2015-Jul-17 15:15N 36°20' E 016°40'1013.6
2015-Jul-17 14:33N 36°20' E 016°28'1513.6
2015-Jul-17 13:29N 36°20' E 016°10'1313.8
2015-Jul-17 12:33N 36°21' E 015°54'1713.6
2015-Jul-17 11:18N 36°20' E 015°34'1013.2
2015-Jul-17 10:33N 36°19' E 015°21'1312.9
2015-Jul-17 09:33N 36°23' E 015°06'1313.2
2015-Jul-17 08:33N 36°24' E 014°49'1313.4
2015-Jul-17 07:33N 36°27' E 014°33'1313.2
2015-Jul-17 06:33N 36°30' E 014°17'1313.2
2015-Jul-17 05:33N 36°33' E 014°01'1313.5
2015-Jul-17 04:33N 36°37' E 013°45'1313.2
2015-Jul-17 03:33N 36°40' E 013°29'1313.5
2015-Jul-17 02:33N 36°44' E 013°13'1313.4
2015-Jul-17 01:33N 36°47' E 012°57'1313.4
2015-Jul-17 00:33N 36°51' E 012°41'1413.7
2015-Jul-16 23:33N 36°55' E 012°24'1413.9
2015-Jul-16 22:33N 36°58' E 012°07'1413.8
2015-Jul-16 21:34N 37°04' E 011°52'1313.4
2015-Jul-16 20:33N 37°10' E 011°37'1313.4
2015-Jul-16 19:33N 37°17' E 011°23'1412.9
2015-Jul-16 18:28N 37°24' E 011°07'1212.9
2015-Jul-16 17:33N 37°26' E 010°53'1313.3
2015-Jul-16 16:33N 37°30' E 010°36'1413.4
2015-Jul-16 15:31N 37°33' E 010°19'2913.3
2015-Jul-16 13:23N 37°30' E 009°44'1113.4
2015-Jul-16 12:33N 37°28' E 009°30'1313.0
2015-Jul-16 11:33N 37°25' E 009°14'1313.2
2015-Jul-16 10:32N 37°21' E 008°58'6713.4
2015-Jul-16 05:32N 37°16' E 007°34'1313.5
2015-Jul-16 04:34N 37°15' E 007°17'2613.1
2015-Jul-16 02:34N 37°13' E 006°45'1313.0
2015-Jul-16 01:33N 37°14' E 006°28'1312.8
2015-Jul-16 00:32N 37°13' E 006°12'1313.1
2015-Jul-15 23:33N 37°13' E 005°56'3113.2
2015-Jul-15 21:13N 37°12' E 005°17'3613.5
2015-Jul-15 18:32N 37°10' E 004°32'1313.6
2015-Jul-15 17:34N 37°09' E 004°15'1313.3
2015-Jul-15 16:33N 37°09' E 003°58'2813.1
2015-Jul-15 14:25N 37°04' E 003°24'1313.3
2015-Jul-15 13:28N 37°01' E 003°08'1213.4
2015-Jul-15 12:34N 36°59' E 002°53'1313.0
2015-Jul-15 11:34N 36°57' E 002°37'1312.9
2015-Jul-15 10:33N 36°54' E 002°21'1312.9
2015-Jul-15 09:33N 36°52' E 002°06'1312.8
2015-Jul-15 08:33N 36°49' E 001°50'1312.9
2015-Jul-15 07:33N 36°46' E 001°34'1312.9
2015-Jul-15 06:33N 36°44' E 001°18'1313.3
2015-Jul-15 05:33N 36°42' E 001°02'1414.0
2015-Jul-15 04:33N 36°39' E 000°45'1413.9
2015-Jul-15 03:33N 36°36' E 000°28'1313.5
2015-Jul-15 02:33N 36°34' E 000°11'1313.3
2015-Jul-15 01:33N 36°31' W 000°05'1313.3
2015-Jul-15 00:34N 36°28' W 000°21'1313.0
2015-Jul-14 23:33N 36°26' W 000°37'1312.7
2015-Jul-14 22:33N 36°24' W 000°53'1312.8
2015-Jul-14 21:33N 36°21' W 001°08'1312.8
2015-Jul-14 20:33N 36°19' W 001°24'1312.9
2015-Jul-14 19:33N 36°17' W 001°39'1312.9
2015-Jul-14 18:33N 36°14' W 001°55'1313.1
2015-Jul-14 17:33N 36°13' W 002°11'1312.7
2015-Jul-14 16:33N 36°12' W 002°27'1212.3
2015-Jul-14 15:33N 36°11' W 002°42'1312.9
2015-Jul-14 14:33N 36°11' W 002°58'1513.0
2015-Jul-14 13:25N 36°10' W 003°16'9413.7
2015-Jul-14 06:33N 36°05' W 005°13'9 9.1
2015-Jul-14 05:33N 36°08' W 005°23'1 0.3
2015-Jul-14 03:27N 36°09' W 005°23'0 0.0
2015-Jul-14 02:24N 36°09' W 005°23'0 0.2
2015-Jul-14 01:30N 36°09' W 005°23'0 0.1
2015-Jul-14 00:24N 36°09' W 005°23'0 0.0
2015-Jul-13 23:33N 36°09' W 005°23'0 0.0
2015-Jul-13 21:06N 36°09' W 005°23'0 0.0
2015-Jul-13 20:33N 36°09' W 005°23'0 0.2
2015-Jul-13 19:32N 36°09' W 005°23'0 0.2
2015-Jul-13 18:26N 36°09' W 005°23'0 0.0
2015-Jul-13 17:33N 36°09' W 005°23'0 0.0
2015-Jul-13 16:33N 36°09' W 005°23'0 0.0
2015-Jul-13 15:33N 36°09' W 005°23'0 0.1
2015-Jul-13 14:32N 36°09' W 005°23'5 5.2
2015-Jul-13 13:33N 36°04' W 005°22'8 8.4
2015-Jul-13 12:33N 35°58' W 005°29'3411.5
2015-Jul-13 09:33N 35°49' W 006°10'1513.6
2015-Jul-13 08:28N 35°42' W 006°26'1213.3
2015-Jul-13 07:33N 35°33' W 006°36'1313.3
2015-Jul-13 06:33N 35°23' W 006°47'1313.3
2015-Jul-13 05:33N 35°13' W 006°58'1313.4
2015-Jul-13 04:33N 35°03' W 007°09'1313.3
2015-Jul-13 03:33N 34°53' W 007°19'1313.3
2015-Jul-13 02:33N 34°43' W 007°30'1313.1
2015-Jul-13 01:33N 34°34' W 007°41'1313.0
2015-Jul-13 00:33N 34°24' W 007°52'1312.7
2015-Jul-12 23:33N 34°14' W 008°02'1312.8
2015-Jul-12 22:33N 34°05' W 008°12'2812.7
2015-Jul-12 20:19N 33°44' W 008°35'912.2
2015-Jul-12 19:33N 33°37' W 008°43'2412.0
2015-Jul-12 17:33N 33°20' W 009°03'1211.7
2015-Jul-12 16:33N 33°11' W 009°12'7211.5
2015-Jul-12 10:14N 32°17' W 010°10'4211.5
2015-Jul-12 06:33N 31°44' W 010°41'3811.2
2015-Jul-12 03:08N 31°14' W 011°10'611.1
2015-Jul-12 02:33N 31°09' W 011°14'3310.8
2015-Jul-11 23:30N 30°44' W 011°38'2511.0
2015-Jul-11 21:16N 30°25' W 011°57'811.1
2015-Jul-11 20:33N 30°19' W 012°03'1111.4
2015-Jul-11 19:33N 30°10' W 012°11'1211.6
2015-Jul-11 18:33N 30°01' W 012°19'1211.7
2015-Jul-11 17:33N 29°52' W 012°28'1211.7
2015-Jul-11 16:33N 29°43' W 012°36'1211.8
2015-Jul-11 15:33N 29°34' W 012°45'1311.8
2015-Jul-11 14:27N 29°23' W 012°54'1411.6
2015-Jul-11 13:13N 29°13' W 013°05'812.0
2015-Jul-11 12:33N 29°06' W 013°09'1212.0
2015-Jul-11 11:32N 28°54' W 013°15'1111.8
2015-Jul-11 10:33N 28°44' W 013°20'1211.6
2015-Jul-11 09:33N 28°34' W 013°26'1212.3
2015-Jul-11 08:33N 28°22' W 013°32'1212.5
2015-Jul-11 07:33N 28°11' W 013°37'1212.3
2015-Jul-11 06:33N 27°60' W 013°43'1211.7
2015-Jul-11 05:33N 27°50' W 013°50'1311.6
2015-Jul-11 04:24N 27°39' W 013°59'1011.7
2015-Jul-11 03:33N 27°30' W 014°04'1212.1
2015-Jul-11 02:33N 27°20' W 014°12'1212.0
2015-Jul-11 01:33N 27°10' W 014°19'1211.6
2015-Jul-11 00:30N 27°00' W 014°27'  

Dump ship's entire track history